Time;durP1;ratioP1;P1;durP2;ratioP2;P2;SDS_P1;SDS_P2;PMS_P1;PMS_P2;Temp;Humidity;BMP_temperature;BMP_pressure;BME280_temperature;BME280_humidity;BME280_pressure;Samples;Min_cycle;Max_cycle;Signal;HPM_P1;HPM_P2
2023/10/06 00:01:52;;;;;;;10.73;5.97;;;;;;;10.64;94.23;99217.03;4126346;28;20623;-87
2023/10/06 00:03:58;;;;;;;12.10;7.07;;;;;;;10.62;93.05;99216.28;4127914;28;20635;-87
2023/10/06 00:06:01;;;;;;;10.63;6.50;;;;;;;10.60;93.16;99221.56;4136907;28;21326;-88
2023/10/06 00:08:07;;;;;;;8.60;5.40;;;;;;;10.59;93.59;99216.44;4113114;28;20634;-88
2023/10/06 00:10:17;;;;;;;9.13;6.33;;;;;;;10.61;94.01;99227.63;4125850;28;20697;-87
2023/10/06 00:12:20;;;;;;;8.83;5.77;;;;;;;10.61;94.11;99231.06;4141783;28;21049;-87
2023/10/06 00:14:38;;;;;;;9.20;6.33;;;;;;;10.59;93.77;99224.25;4114468;28;20728;-87
2023/10/06 00:16:43;;;;;;;9.83;5.60;;;;;;;10.59;93.97;99221.66;4126155;28;20635;-87
2023/10/06 00:18:47;;;;;;;8.37;5.37;;;;;;;10.54;92.18;99223.63;4130988;28;20627;-88
2023/10/06 00:20:55;;;;;;;8.37;5.70;;;;;;;10.46;93.03;99217.97;4128178;28;20984;-87
2023/10/06 00:23:04;;;;;;;10.67;6.60;;;;;;;10.44;92.90;99209.38;4127261;28;20634;-87
2023/10/06 00:25:13;;;;;;;8.43;5.30;;;;;;;10.38;92.66;99212.28;4127448;28;21236;-87
2023/10/06 00:27:20;;;;;;;9.90;5.63;;;;;;;10.32;91.64;99206.53;4129866;28;20667;-87
2023/10/06 00:29:23;;;;;;;9.67;5.80;;;;;;;10.31;92.41;99210.06;4129668;28;20643;-87
2023/10/06 00:31:31;;;;;;;12.90;6.43;;;;;;;10.31;92.79;99218.72;4130008;28;20655;-87
2023/10/06 00:33:37;;;;;;;9.73;5.90;;;;;;;10.32;93.29;99216.97;4128772;28;20631;-88
2023/10/06 00:35:41;;;;;;;7.40;5.13;;;;;;;10.33;93.57;99216.91;4128618;28;21048;-87
2023/10/06 00:37:44;;;;;;;8.30;5.57;;;;;;;10.32;93.53;99220.41;4142660;28;20693;-87
2023/10/06 00:39:46;;;;;;;9.23;5.47;;;;;;;10.26;93.00;99207.69;4130174;28;21183;-87
2023/10/06 00:41:55;;;;;;;7.57;5.30;;;;;;;10.23;92.71;99220.03;4113381;28;21006;-87
2023/10/06 00:43:59;;;;;;;7.30;5.03;;;;;;;10.22;92.67;99213.94;4124577;28;20634;-87
2023/10/06 00:46:06;;;;;;;9.17;5.70;;;;;;;10.22;93.17;99216.56;4126565;28;20659;-87
2023/10/06 00:48:14;;;;;;;11.30;5.60;;;;;;;10.21;93.42;99212.28;4116697;28;20631;-87
2023/10/06 00:50:22;;;;;;;8.07;6.10;;;;;;;10.20;92.67;99215.78;4126381;28;20666;-87
2023/10/06 00:52:25;;;;;;;11.57;6.33;;;;;;;10.22;93.21;99208.72;4123688;28;21049;-87
2023/10/06 00:54:28;;;;;;;9.37;5.77;;;;;;;10.22;93.00;99213.13;4111182;28;20727;-87
2023/10/06 00:56:33;;;;;;;8.20;6.23;;;;;;;10.19;93.29;99219.31;4140395;28;20635;-87
2023/10/06 00:58:41;;;;;;;11.20;6.10;;;;;;;10.17;93.01;99212.50;4129566;28;21015;-87
2023/10/06 01:00:45;;;;;;;11.97;5.43;;;;;;;10.15;93.49;99209.97;4125116;28;21098;-87
2023/10/06 01:02:49;;;;;;;9.47;6.07;;;;;;;10.19;93.33;99210.66;4127076;28;20639;-87
2023/10/06 01:04:53;;;;;;;8.23;5.60;;;;;;;10.20;92.83;99209.75;4125514;28;20691;-87
2023/10/06 01:06:57;;;;;;;10.60;5.40;;;;;;;10.20;93.11;99205.38;4112428;28;21128;-87
2023/10/06 01:09:12;;;;;;;10.53;6.00;;;;;;;10.16;93.44;99202.97;4128044;28;20642;-87
2023/10/06 01:11:17;;;;;;;7.70;4.90;;;;;;;10.15;93.16;99199.53;4123225;28;20658;-87
2023/10/06 01:13:22;;;;;;;9.33;5.70;;;;;;;10.12;93.58;99191.88;4114030;28;20631;-87
2023/10/06 01:15:29;;;;;;;9.40;5.70;;;;;;;10.11;92.86;99187.56;4111906;28;20629;-87
2023/10/06 01:17:33;;;;;;;9.13;5.20;;;;;;;10.08;93.45;99186.88;4138641;28;21186;-87
2023/10/06 01:19:37;;;;;;;8.97;5.80;;;;;;;10.08;93.23;99195.53;4124170;28;20673;-87
2023/10/06 01:21:40;;;;;;;7.77;4.60;;;;;;;10.06;92.80;99186.97;4110315;28;20628;-87
2023/10/06 01:23:46;;;;;;;10.00;5.47;;;;;;;10.00;92.96;99182.03;4111387;28;20654;-87
2023/10/06 01:25:54;;;;;;;9.20;5.43;;;;;;;9.98;92.75;99191.72;4112917;28;20616;-87
2023/10/06 01:27:57;;;;;;;8.70;5.27;;;;;;;9.94;92.91;99182.34;4112940;28;20652;-87
2023/10/06 01:30:17;;;;;;;9.27;5.40;;;;;;;9.90;92.99;99177.31;4135525;28;20672;-87
2023/10/06 01:32:20;;;;;;;8.90;5.63;;;;;;;9.90;92.79;99183.38;4123606;28;20635;-87
2023/10/06 01:34:27;;;;;;;11.53;5.90;;;;;;;9.87;92.57;99180.91;4136376;28;20654;-87
2023/10/06 01:36:30;;;;;;;9.63;5.27;;;;;;;9.85;93.27;99187.13;4124246;28;20684;-87
2023/10/06 01:38:36;;;;;;;8.97;5.03;;;;;;;9.83;93.07;99175.91;4111007;28;20640;-87
2023/10/06 01:40:44;;;;;;;10.27;5.80;;;;;;;9.81;93.01;99169.94;4112887;28;20658;-87
2023/10/06 01:42:48;;;;;;;12.47;7.07;;;;;;;9.84;93.35;99184.59;4124444;28;20615;-87
2023/10/06 01:44:51;;;;;;;9.10;5.40;;;;;;;9.84;93.48;99185.44;4126080;28;21218;-88
2023/10/06 01:46:54;;;;;;;10.53;6.43;;;;;;;9.83;93.06;99188.09;4127250;28;21323;-87
2023/10/06 01:48:58;;;;;;;10.23;6.27;;;;;;;9.81;92.79;99176.91;4129357;28;20714;-87
2023/10/06 01:51:09;;;;;;;9.23;5.27;;;;;;;9.78;93.03;99171.84;4125632;28;20697;-87
2023/10/06 01:53:18;;;;;;;8.33;5.33;;;;;;;9.74;93.11;99181.59;4124546;28;21229;-87
2023/10/06 01:55:23;;;;;;;8.40;5.30;;;;;;;9.74;93.19;99170.31;4124672;28;20642;-87
2023/10/06 01:57:27;;;;;;;9.10;6.03;;;;;;;9.78;93.08;99179.69;4107578;28;20740;-87
2023/10/06 01:59:31;;;;;;;7.50;5.30;;;;;;;9.77;92.44;99176.22;4112324;28;20687;-87
2023/10/06 02:01:35;;;;;;;8.93;5.30;;;;;;;9.74;93.14;99179.00;4123785;28;20657;-87
2023/10/06 02:03:41;;;;;;;9.87;5.87;;;;;;;9.74;93.05;99183.34;4126069;28;20635;-88
2023/10/06 02:05:43;;;;;;;9.60;5.37;;;;;;;9.72;92.85;99179.97;4128933;28;20679;-87
2023/10/06 02:07:47;;;;;;;8.43;5.47;;;;;;;9.69;92.58;99177.50;4125545;28;20781;-87
2023/10/06 02:09:51;;;;;;;11.10;6.43;;;;;;;9.66;93.18;99180.25;4126209;28;20682;-87
2023/10/06 02:11:55;;;;;;;9.33;6.30;;;;;;;9.67;92.19;99176.75;4126878;28;20643;-87
2023/10/06 02:13:59;;;;;;;8.37;5.87;;;;;;;9.66;92.93;99188.06;4128386;28;21166;-87
2023/10/06 02:16:04;;;;;;;10.03;5.47;;;;;;;9.65;92.90;99176.81;4125457;28;21045;-87
2023/10/06 02:18:12;;;;;;;7.20;5.43;;;;;;;9.61;93.56;99177.03;4127172;28;21179;-87
2023/10/06 02:20:29;;;;;;;8.70;5.30;;;;;;;9.58;93.74;99179.78;4112292;28;20678;-87
2023/10/06 02:22:32;;;;;;;9.05;5.47;;;;;;;9.55;93.92;99178.16;4109178;28;20636;-87
2023/10/06 02:24:36;;;;;;;8.23;5.23;;;;;;;9.54;93.76;99178.22;4110515;28;20687;-87
2023/10/06 02:26:39;;;;;;;9.57;6.00;;;;;;;9.53;93.87;99182.59;4110299;28;20671;-87
2023/10/06 02:28:48;;;;;;;12.67;6.70;;;;;;;9.51;93.41;99184.41;4113595;28;20727;-87
2023/10/06 02:30:55;;;;;;;12.60;6.27;;;;;;;9.54;93.96;99188.63;4112392;28;20663;-87
2023/10/06 02:32:58;;;;;;;10.57;5.97;;;;;;;9.58;94.11;99187.59;4109539;28;21007;-87
2023/10/06 02:35:03;;;;;;;8.83;6.50;;;;;;;9.57;93.22;99186.72;4114220;28;20655;-87
2023/10/06 02:37:07;;;;;;;10.43;6.00;;;;;;;9.50;93.53;99181.88;4108399;28;20640;-87
2023/10/06 02:39:15;;;;;;;10.40;7.07;;;;;;;9.47;93.36;99174.22;4128446;28;20671;-87
2023/10/06 02:41:20;;;;;;;12.00;5.97;;;;;;;9.42;92.61;99176.19;4126929;28;21414;-87
2023/10/06 02:43:27;;;;;;;9.40;6.27;;;;;;;9.41;93.83;99174.50;4124134;28;20850;-87
2023/10/06 02:45:40;;;;;;;9.60;4.90;;;;;;;9.39;93.29;99171.13;4110246;28;20639;-87
2023/10/06 02:47:45;;;;;;;8.07;5.27;;;;;;;9.38;92.25;99170.28;4127383;28;21223;-87
2023/10/06 02:49:49;;;;;;;9.17;5.67;;;;;;;9.35;93.39;99169.59;4125757;28;21089;-87
2023/10/06 02:51:54;;;;;;;9.73;5.43;;;;;;;9.32;93.55;99172.34;4109832;28;20658;-88
2023/10/06 02:54:12;;;;;;;7.60;5.20;;;;;;;9.32;93.19;99163.66;4123055;28;20620;-87
2023/10/06 02:56:19;;;;;;;9.27;5.70;;;;;;;9.30;93.34;99166.34;4118674;28;20689;-87
2023/10/06 02:58:26;;;;;;;9.33;4.73;;;;;;;9.32;93.24;99158.47;4106709;28;20699;-87
2023/10/06 03:00:32;;;;;;;9.50;5.90;;;;;;;9.31;93.31;99160.22;4124857;28;20726;-87
2023/10/06 03:02:35;;;;;;;9.20;5.20;;;;;;;9.30;93.15;99163.75;4125535;28;20631;-87
2023/10/06 03:04:43;;;;;;;8.05;4.88;;;;;;;9.31;93.05;99160.22;4123084;28;20216;-87
2023/10/06 03:06:52;;;;;;;9.40;5.50;;;;;;;9.29;93.48;99166.41;4109035;28;20404;-87
2023/10/06 03:08:56;;;;;;;7.27;5.40;;;;;;;9.30;93.41;99155.09;4122456;28;20226;-87
2023/10/06 03:11:01;;;;;;;8.20;4.88;;;;;;;9.30;93.54;99155.09;4122075;28;20726;-88
2023/10/06 03:13:05;;;;;;;8.65;4.68;;;;;;;9.29;93.94;99156.00;4102466;28;20214;-87
2023/10/06 03:15:28;;;;;;;7.23;4.40;;;;;;;9.29;94.29;99149.06;4121328;28;20299;-87
2023/10/06 03:17:34;;;;;;;7.07;4.82;;;;;;;9.24;92.79;99151.00;4109770;28;20691;-87
2023/10/06 03:19:40;;;;;;;8.20;4.90;;;;;;;9.15;91.98;99140.19;4127577;28;20243;-87
2023/10/06 03:21:45;;;;;;;6.90;4.80;;;;;;;9.02;91.27;99147.72;4136905;28;21038;-87
2023/10/06 03:23:57;;;;;;;8.63;5.20;;;;;;;9.00;91.56;99146.91;4126683;28;20723;-87
2023/10/06 03:26:03;;;;;;;9.77;5.20;;;;;;;9.05;92.46;99152.78;4100794;28;21297;-87
2023/10/06 03:28:10;;;;;;;6.75;5.00;;;;;;;9.05;93.74;99154.50;4106822;28;20248;-87
2023/10/06 03:30:26;;;;;;;7.93;4.83;;;;;;;9.09;93.41;99156.91;4133625;28;20245;-87
2023/10/06 03:32:33;;;;;;;11.20;5.10;;;;;;;9.11;92.97;99157.69;4125855;28;21011;-87
2023/10/06 03:34:35;;;;;;;7.37;4.97;;;;;;;9.13;93.51;99166.28;4108961;28;21046;-87
2023/10/06 03:36:46;;;;;;;7.07;5.03;;;;;;;9.15;93.17;99172.25;4125221;28;21240;-87
2023/10/06 03:38:55;;;;;;;9.70;6.25;;;;;;;9.17;94.63;99166.97;4118462;28;20627;-88
2023/10/06 03:41:12;;;;;;;10.03;5.23;;;;;;;9.15;94.00;99161.00;4118899;28;20216;-87
2023/10/06 03:43:19;;;;;;;10.67;5.50;;;;;;;9.14;94.08;99164.50;4120958;28;20638;-87
2023/10/06 03:45:31;;;;;;;15.63;5.40;;;;;;;9.18;94.84;99176.47;4136322;28;20753;-87
2023/10/06 03:47:36;;;;;;;10.23;7.20;;;;;;;9.18;94.50;99177.31;4107351;28;21249;-87
2023/10/06 03:49:42;;;;;;;10.18;6.10;;;;;;;9.19;94.34;99171.19;4125469;28;21326;-87
2023/10/06 03:51:45;;;;;;;12.50;6.30;;;;;;;9.15;94.49;99167.03;4135029;28;20215;-87
2023/10/06 03:53:49;;;;;;;14.30;6.50;;;;;;;9.13;94.58;99161.06;4107246;28;20671;-87
2023/10/06 03:55:54;;;;;;;8.80;5.43;;;;;;;9.10;93.55;99153.41;4124552;28;20636;-87
2023/10/06 03:57:58;;;;;;;11.37;6.50;;;;;;;9.07;92.91;99150.94;4104257;28;20673;-87
2023/10/06 04:00:01;;;;;;;14.33;6.60;;;;;;;9.03;93.92;99146.78;4125532;28;20994;-87
2023/10/06 04:02:15;;;;;;;14.88;6.63;;;;;;;9.01;94.46;99146.00;4125241;28;20639;-87
2023/10/06 04:04:22;;;;;;;13.33;5.97;;;;;;;8.99;94.93;99142.66;4125218;28;20212;-87
2023/10/06 04:06:26;;;;;;;12.90;5.97;;;;;;;8.97;95.82;99134.03;4125843;28;20651;-89
2023/10/06 04:08:29;;;;;;;15.83;6.03;;;;;;;8.97;95.48;99141.84;4123781;28;20647;-89
2023/10/06 04:10:33;;;;;;;14.18;6.57;;;;;;;8.95;95.79;99133.28;4127771;28;20631;-89
2023/10/06 04:12:37;;;;;;;16.73;6.65;;;;;;;8.97;95.69;99143.63;4109113;28;20260;-89
2023/10/06 04:14:40;;;;;;;11.57;5.97;;;;;;;8.97;95.40;99141.84;4129493;28;20293;-89
2023/10/06 04:16:45;;;;;;;12.60;6.33;;;;;;;8.98;95.39;99138.34;4135794;28;21295;-89
2023/10/06 04:18:49;;;;;;;12.07;6.17;;;;;;;8.99;94.92;99141.78;4111624;28;20640;-88
2023/10/06 04:20:51;;;;;;;12.47;5.90;;;;;;;8.97;94.57;99141.00;4108380;28;20643;-89
2023/10/06 04:22:55;;;;;;;17.07;6.37;;;;;;;8.97;94.34;99141.00;4123497;28;20639;-89
2023/10/06 04:24:59;;;;;;;11.40;6.07;;;;;;;8.96;95.37;99129.78;4125905;28;20726;-89
2023/10/06 04:27:02;;;;;;;6.90;4.60;;;;;;;8.93;95.23;99140.31;4110010;28;20999;-89
2023/10/06 04:29:08;;;;;;;9.90;5.73;;;;;;;8.87;94.75;99134.56;4110804;28;20271;-89
2023/10/06 04:31:15;;;;;;;11.90;5.03;;;;;;;8.87;94.63;99137.16;4138857;28;21181;-89
2023/10/06 04:33:19;;;;;;;7.63;4.53;;;;;;;8.87;95.27;99144.09;4137674;28;20661;-90
2023/10/06 04:35:24;;;;;;;8.67;4.37;;;;;;;8.87;96.02;99138.91;4125312;28;20661;-89
2023/10/06 04:37:29;;;;;;;14.93;5.20;;;;;;;8.85;96.54;99140.72;4126444;28;20628;-89
2023/10/06 04:39:33;;;;;;;9.13;5.68;;;;;;;8.88;95.13;99153.59;4132150;28;21338;-89
2023/10/06 04:41:36;;;;;;;5.80;4.10;;;;;;;8.86;96.69;99153.66;4116596;28;20209;-89
2023/10/06 04:43:44;;;;;;;7.88;4.90;;;;;;;8.88;94.75;99156.19;4121629;28;20711;-90
2023/10/06 04:45:50;;;;;;;9.60;6.35;;;;;;;8.81;94.06;99149.56;4123456;28;20417;-89
2023/10/06 04:47:55;;;;;;;9.87;6.20;;;;;;;8.76;93.30;99152.38;4126145;28;20676;-89
2023/10/06 04:49:59;;;;;;;8.10;4.73;;;;;;;8.70;93.32;99151.81;4106581;28;21261;-88
2023/10/06 04:52:02;;;;;;;8.40;4.97;;;;;;;8.65;93.46;99145.97;4122222;28;20641;-89
2023/10/06 04:54:08;;;;;;;8.07;5.50;;;;;;;8.63;94.71;99145.19;4123806;28;20737;-88
2023/10/06 04:56:12;;;;;;;12.97;6.90;;;;;;;8.67;93.38;99146.75;4121076;28;21238;-91
2023/10/06 04:58:15;;;;;;;11.52;6.10;;;;;;;8.68;93.92;99135.44;4128568;28;20992;-88
2023/10/06 05:00:20;;;;;;;12.18;6.30;;;;;;;8.64;95.37;99129.50;4109275;28;20569;-88
2023/10/06 05:02:25;;;;;;;17.52;7.60;;;;;;;8.65;96.41;99136.41;4125863;28;20212;-88
2023/10/06 05:04:29;;;;;;;18.00;6.90;;;;;;;8.67;95.60;99141.53;4136953;28;20210;-88
2023/10/06 05:06:32;;;;;;;22.23;6.50;;;;;;;8.71;95.22;99138.75;4128262;28;20236;-88
2023/10/06 05:08:35;;;;;;;16.63;6.77;;;;;;;8.71;95.64;99143.09;4128916;28;20763;-88
2023/10/06 05:10:39;;;;;;;12.68;7.47;;;;;;;8.70;94.80;99147.44;4127039;28;20742;-88
2023/10/06 05:12:42;;;;;;;13.00;7.10;;;;;;;8.68;94.53;99148.44;4122005;28;20676;-88
2023/10/06 05:14:46;;;;;;;11.10;6.47;;;;;;;8.65;95.81;99149.41;4128201;28;20638;-88
2023/10/06 05:16:51;;;;;;;11.80;6.27;;;;;;;8.69;95.33;99152.72;4130199;28;20635;-88
2023/10/06 05:18:55;;;;;;;15.05;6.25;;;;;;;8.68;95.85;99156.25;4127235;28;20623;-88
2023/10/06 05:20:59;;;;;;;19.70;7.00;;;;;;;8.67;95.02;99151.94;4134894;28;20210;-88
2023/10/06 05:23:07;;;;;;;24.77;7.63;;;;;;;8.70;96.67;99162.22;4125015;28;20676;-88
2023/10/06 05:25:13;;;;;;;13.43;6.75;;;;;;;8.70;96.70;99154.41;4131642;28;20215;-88
2023/10/06 05:27:19;;;;;;;17.73;7.47;;;;;;;8.68;97.12;99153.63;4139962;28;20235;-88
2023/10/06 05:29:25;;;;;;;13.23;7.10;;;;;;;8.67;97.51;99149.34;4124320;28;20709;-88
2023/10/06 05:31:28;;;;;;;23.33;8.03;;;;;;;8.63;96.25;99143.44;4121874;28;20662;-88
2023/10/06 05:33:31;;;;;;;20.73;6.90;;;;;;;8.63;96.24;99150.38;4125039;28;20706;-88
2023/10/06 05:35:38;;;;;;;12.57;5.80;;;;;;;8.60;96.25;99145.31;4129056;28;20718;-88
2023/10/06 05:37:43;;;;;;;18.50;6.67;;;;;;;8.59;97.50;99154.03;4110511;28;20628;-88
2023/10/06 05:39:46;;;;;;;21.53;7.73;;;;;;;8.60;97.80;99158.31;4126813;28;20627;-88
2023/10/06 05:41:49;;;;;;;24.17;6.40;;;;;;;8.59;96.58;99160.06;4127000;28;20758;-88
2023/10/06 05:43:53;;;;;;;19.63;6.40;;;;;;;8.59;97.98;99160.06;4137318;28;20642;-88
2023/10/06 05:45:57;;;;;;;19.17;7.20;;;;;;;8.59;97.15;99167.03;4124892;28;20208;-88
2023/10/06 05:48:06;;;;;;;16.05;6.07;;;;;;;8.58;98.30;99170.53;4125817;28;20662;-87
2023/10/06 05:50:09;;;;;;;13.32;5.57;;;;;;;8.59;98.01;99180.03;4125660;28;20278;-88
2023/10/06 05:52:14;;;;;;;11.90;6.60;;;;;;;8.61;98.39;99186.84;4110423;28;20329;-88
2023/10/06 05:54:21;;;;;;;8.50;5.90;;;;;;;8.62;97.25;99187.72;4125002;28;20672;-88
2023/10/06 05:56:26;;;;;;;17.42;6.45;;;;;;;8.67;97.70;99180.53;4131965;28;20629;-88
2023/10/06 05:58:30;;;;;;;13.52;6.03;;;;;;;8.68;96.63;99192.66;4126681;28;20694;-88
2023/10/06 06:00:35;;;;;;;12.25;6.18;;;;;;;8.68;96.51;99190.88;4125423;28;20200;-88
2023/10/06 06:02:38;;;;;;;17.65;6.93;;;;;;;8.71;97.74;99189.91;4141769;28;20216;-88
2023/10/06 06:04:41;;;;;;;15.32;6.68;;;;;;;8.76;97.51;99190.56;4124096;28;20212;-88
2023/10/06 06:06:46;;;;;;;7.90;5.45;;;;;;;8.81;97.52;99193.78;4128393;28;20208;-88
2023/10/06 06:08:51;;;;;;;14.88;6.03;;;;;;;8.83;96.53;99194.59;4127297;28;20635;-88
2023/10/06 06:10:55;;;;;;;14.63;6.67;;;;;;;8.83;97.50;99189.38;4128082;28;20244;-88
2023/10/06 06:12:58;;;;;;;10.27;6.20;;;;;;;8.89;97.57;99202.13;4125907;28;20726;-88
2023/10/06 06:15:03;;;;;;;8.43;6.18;;;;;;;8.92;97.69;99199.38;4118130;28;20291;-88
2023/10/06 06:17:07;;;;;;;14.63;6.93;;;;;;;8.96;98.04;99199.19;4136960;28;20303;-89
2023/10/06 06:19:11;;;;;;;15.32;6.90;;;;;;;9.02;98.21;99204.94;4127439;28;20230;-88
2023/10/06 06:21:16;;;;;;;15.53;6.63;;;;;;;9.09;97.29;99203.75;4128497;28;20295;-89
2023/10/06 06:23:20;;;;;;;9.27;5.72;;;;;;;9.14;97.46;99213.94;4124154;28;20654;-90
2023/10/06 06:25:26;;;;;;;15.87;6.20;;;;;;;9.14;97.50;99207.00;4128874;28;20212;-89
2023/10/06 06:27:29;;;;;;;13.55;6.45;;;;;;;9.16;97.44;99209.53;4130196;28;20635;-89
2023/10/06 06:29:33;;;;;;;9.48;5.80;;;;;;;9.20;96.53;99213.69;4126047;28;20223;-89
2023/10/06 06:31:37;;;;;;;8.50;5.30;;;;;;;9.27;96.60;99208.13;4140710;28;20204;-89
2023/10/06 06:33:42;;;;;;;11.43;6.50;;;;;;;9.36;97.48;99218.13;4129727;28;21018;-90
2023/10/06 06:35:45;;;;;;;11.00;5.97;;;;;;;9.46;97.64;99211.59;4127214;28;21219;-91
2023/10/06 06:37:51;;;;;;;10.20;6.80;;;;;;;9.51;97.43;99204.41;4114494;28;20213;-91
2023/10/06 06:39:55;;;;;;;11.13;6.80;;;;;;;9.59;97.28;99204.88;4129334;28;20624;-89
2023/10/06 06:41:59;;;;;;;14.33;6.77;;;;;;;9.65;97.36;99205.47;4129088;28;20627;-89
2023/10/06 06:44:04;;;;;;;7.80;5.90;;;;;;;9.75;97.20;99208.47;4114901;28;20658;-88
2023/10/06 06:46:07;;;;;;;13.07;7.20;;;;;;;9.86;97.04;99209.63;4131289;28;20630;-89
2023/10/06 06:48:13;;;;;;;13.15;6.95;;;;;;;9.96;96.78;99214.38;4128770;28;20639;-89
2023/10/06 06:50:17;;;;;;;12.60;7.27;;;;;;;10.01;95.49;99215.00;4121008;28;20251;-87
2023/10/06 06:52:22;;;;;;;12.10;6.70;;;;;;;10.07;95.79;99213.84;4109163;28;21301;-88
2023/10/06 06:54:25;;;;;;;12.33;7.00;;;;;;;10.12;95.04;99207.50;4126323;28;20631;-87
2023/10/06 06:56:29;;;;;;;9.67;6.40;;;;;;;10.25;97.22;99215.56;4121245;28;20737;-88
2023/10/06 06:58:37;;;;;;;10.17;7.33;;;;;;;10.37;95.85;99218.41;4106761;28;21460;-88
2023/10/06 07:00:40;;;;;;;7.17;5.83;;;;;;;10.44;96.04;99219.81;4121488;28;20738;-87
2023/10/06 07:02:44;;;;;;;11.77;7.10;;;;;;;10.47;95.30;99217.03;4122524;28;21284;-88
2023/10/06 07:04:48;;;;;;;11.70;7.33;;;;;;;10.57;94.22;99226.06;4119623;28;20212;-87
2023/10/06 07:06:52;;;;;;;10.70;7.10;;;;;;;10.65;94.00;99221.34;4108553;28;20672;-87
2023/10/06 07:08:57;;;;;;;12.27;7.00;;;;;;;10.84;95.67;99229.00;4122483;28;20635;-87
2023/10/06 07:11:00;;;;;;;9.57;7.13;;;;;;;11.07;94.14;99223.44;4125870;28;20659;-90
2023/10/06 07:13:04;;;;;;;11.30;6.93;;;;;;;11.32;93.03;99229.03;4125021;28;20639;-87
2023/10/06 07:15:14;;;;;;;11.20;6.90;;;;;;;11.50;91.45;99226.34;4123864;28;20666;-87
2023/10/06 07:17:18;;;;;;;9.40;6.43;;;;;;;11.75;93.03;99225.84;4123689;28;20734;-87
2023/10/06 07:19:21;;;;;;;8.00;5.70;;;;;;;11.87;90.73;99224.22;4124951;28;20715;-87
2023/10/06 07:21:24;;;;;;;17.07;12.03;;;;;;;12.06;91.76;99227.50;4121550;28;20633;-87
2023/10/06 07:23:27;;;;;;;13.37;10.50;;;;;;;12.31;91.87;99233.91;4122439;28;20631;-87
2023/10/06 07:25:31;;;;;;;10.57;7.10;;;;;;;12.47;90.83;99231.25;4122273;28;20662;-87
2023/10/06 07:27:34;;;;;;;10.37;7.03;;;;;;;12.56;89.75;99235.94;4123401;28;20737;-87
2023/10/06 07:29:37;;;;;;;9.97;6.73;;;;;;;12.75;91.78;99246.09;4108848;28;20744;-86
2023/10/06 07:31:42;;;;;;;8.33;6.87;;;;;;;12.99;91.49;99257.78;4127911;28;20658;-86
2023/10/06 07:33:47;;;;;;;11.47;7.57;;;;;;;13.20;90.36;99244.22;4111148;28;20987;-87
2023/10/06 07:35:51;;;;;;;10.83;7.47;;;;;;;13.36;89.03;99246.75;4126518;28;21013;-87
2023/10/06 07:37:55;;;;;;;9.50;7.20;;;;;;;13.45;88.24;99235.72;4112719;28;20612;-87
2023/10/06 07:40:02;;;;;;;8.27;6.27;;;;;;;13.56;88.19;99246.38;4141382;28;20742;-87
2023/10/06 07:42:06;;;;;;;11.63;7.83;;;;;;;13.72;89.39;99238.28;4127033;28;20655;-85
2023/10/06 07:44:12;;;;;;;10.47;7.10;;;;;;;13.95;89.38;99244.72;4128011;28;20677;-85
2023/10/06 07:46:16;;;;;;;9.47;6.57;;;;;;;14.11;87.51;99248.09;4126768;28;20670;-86
2023/10/06 07:48:21;;;;;;;10.47;6.80;;;;;;;14.18;86.94;99240.56;4137040;28;20706;-85
2023/10/06 07:50:26;;;;;;;13.43;7.07;;;;;;;14.31;87.93;99235.34;4127531;28;20653;-85
2023/10/06 07:52:28;;;;;;;10.70;8.07;;;;;;;14.54;89.11;99242.56;4125417;28;21182;-86
2023/10/06 07:54:32;;;;;;;8.70;6.80;;;;;;;14.74;89.21;99251.66;4124173;28;20632;-86
2023/10/06 07:56:39;;;;;;;12.00;7.77;;;;;;;14.88;86.05;99248.94;4111293;28;20656;-85
2023/10/06 07:58:42;;;;;;;9.53;7.87;;;;;;;14.96;85.00;99241.41;4125956;28;20629;-85
2023/10/06 08:00:45;;;;;;;12.90;7.30;;;;;;;15.03;85.71;99237.41;4124140;28;20628;-86
2023/10/06 08:02:48;;;;;;;9.37;7.23;;;;;;;15.15;86.58;99237.44;4126694;28;20631;-85
2023/10/06 08:04:53;;;;;;;10.50;7.70;;;;;;;15.33;87.30;99240.63;4128353;28;20700;-85
2023/10/06 08:06:57;;;;;;;12.43;7.10;;;;;;;15.46;86.19;99242.28;4125742;28;20653;-85
2023/10/06 08:09:05;;;;;;;11.50;7.70;;;;;;;15.58;84.88;99246.69;4125294;28;20633;-85
2023/10/06 08:11:09;;;;;;;12.10;8.10;;;;;;;15.64;84.54;99235.75;4110835;28;20645;-85
2023/10/06 08:13:14;;;;;;;14.23;8.10;;;;;;;15.70;84.36;99236.16;4123360;28;21071;-86
2023/10/06 08:15:21;;;;;;;9.30;7.13;;;;;;;15.77;84.37;99233.91;4117858;28;20698;-86
2023/10/06 08:17:27;;;;;;;13.77;7.47;;;;;;;15.83;85.06;99233.47;4122247;28;20681;-85
2023/10/06 08:19:30;;;;;;;16.53;7.40;;;;;;;15.91;83.74;99242.53;4121610;28;20661;-85
2023/10/06 08:21:37;;;;;;;10.43;7.60;;;;;;;16.05;85.03;99242.38;4124459;28;21019;-85
2023/10/06 08:23:40;;;;;;;11.53;8.20;;;;;;;16.26;87.14;99240.88;4108104;28;20628;-85
2023/10/06 08:25:46;;;;;;;15.77;9.60;;;;;;;16.43;87.10;99241.28;4126782;28;20646;-85
2023/10/06 08:28:05;;;;;;;12.10;8.33;;;;;;;16.54;83.05;99231.66;4126490;28;20641;-85
2023/10/06 08:30:09;;;;;;;11.13;7.10;;;;;;;16.64;83.55;99237.94;4125943;28;21314;-85
2023/10/06 08:32:12;;;;;;;11.70;7.90;;;;;;;16.80;83.87;99240.28;4127531;28;21029;-85
2023/10/06 08:34:15;;;;;;;12.50;7.70;;;;;;;16.97;84.47;99231.94;4129882;28;20630;-85
2023/10/06 08:36:18;;;;;;;12.53;7.40;;;;;;;17.09;82.91;99232.69;4124625;28;21188;-86
2023/10/06 08:38:24;;;;;;;10.73;7.63;;;;;;;17.17;83.14;99235.56;4128091;28;20634;-86
2023/10/06 08:40:27;;;;;;;11.77;7.23;;;;;;;17.21;81.61;99231.75;4124201;28;20673;-85
2023/10/06 08:42:31;;;;;;;11.17;7.50;;;;;;;17.20;80.37;99231.84;4111653;28;20643;-86
2023/10/06 08:44:34;;;;;;;10.23;7.27;;;;;;;17.29;81.89;99236.44;4128497;28;20733;-86
2023/10/06 08:46:41;;;;;;;13.47;8.30;;;;;;;17.43;81.14;99234.44;4109720;28;20636;-85
2023/10/06 08:48:45;;;;;;;15.43;7.30;;;;;;;17.57;82.68;99232.38;4105509;28;20676;-85
2023/10/06 08:50:49;;;;;;;10.80;7.63;;;;;;;17.77;81.80;99234.31;4121126;28;22309;-86
2023/10/06 08:52:53;;;;;;;12.27;7.80;;;;;;;17.91;80.76;99231.41;4117691;28;20691;-86
2023/10/06 08:54:58;;;;;;;10.10;7.03;;;;;;;18.05;80.51;99239.06;4114274;28;20638;-86
2023/10/06 08:57:01;;;;;;;11.40;6.97;;;;;;;18.15;79.21;99229.50;4128819;28;21007;-86
2023/10/06 08:59:05;;;;;;;9.17;7.07;;;;;;;18.22;79.59;99235.94;4123725;28;20682;-86
2023/10/06 09:01:09;;;;;;;11.37;7.13;;;;;;;18.33;79.68;99233.25;4128125;28;20688;-86
2023/10/06 09:03:14;;;;;;;11.17;6.07;;;;;;;18.41;77.44;99236.97;4124472;28;20627;-86
2023/10/06 09:05:18;;;;;;;10.80;6.20;;;;;;;18.47;77.66;99241.75;4129868;28;21250;-86
2023/10/06 09:07:22;;;;;;;8.97;7.17;;;;;;;18.61;78.69;99249.41;4112461;28;20669;-86
2023/10/06 09:09:27;;;;;;;11.13;7.10;;;;;;;18.69;78.54;99244.34;4121942;28;20640;-86
2023/10/06 09:11:41;;;;;;;11.70;7.10;;;;;;;18.74;79.07;99235.03;4129175;28;20688;-86
2023/10/06 09:13:45;;;;;;;12.63;6.70;;;;;;;18.77;77.38;99229.50;4127350;28;20687;-86
2023/10/06 09:15:56;;;;;;;10.33;6.53;;;;;;;18.77;78.41;99221.56;4124597;28;20667;-86
2023/10/06 09:17:59;;;;;;;9.83;6.87;;;;;;;18.74;77.94;99229.75;4125698;28;21589;-86
2023/10/06 09:20:04;;;;;;;9.40;6.30;;;;;;;18.77;76.24;99218.09;4128241;28;20645;-87
2023/10/06 09:22:28;;;;;;;10.43;6.33;;;;;;;18.79;76.56;99216.97;4126405;28;21062;-86
2023/10/06 09:24:32;;;;;;;9.13;6.80;;;;;;;18.87;78.49;99222.50;4125242;28;20660;-86
2023/10/06 09:26:35;;;;;;;13.27;7.07;;;;;;;18.97;77.90;99221.59;4121298;28;20664;-86
2023/10/06 09:28:51;;;;;;;10.50;6.13;;;;;;;19.02;77.44;99221.25;4109344;28;20732;-86
2023/10/06 09:31:00;;;;;;;11.73;7.00;;;;;;;19.10;76.94;99209.03;4132277;28;20702;-86
2023/10/06 09:33:04;;;;;;;8.47;6.13;;;;;;;19.14;77.47;99212.25;4108522;28;20729;-86
2023/10/06 09:35:29;;;;;;;12.00;6.37;;;;;;;19.22;77.18;99208.00;4122140;28;20677;-87
2023/10/06 09:37:31;;;;;;;9.37;6.10;;;;;;;19.30;77.59;99213.47;4117793;28;20729;-87
2023/10/06 09:39:35;;;;;;;12.93;6.43;;;;;;;19.42;77.71;99202.69;4124363;28;21317;-87
2023/10/06 09:41:39;;;;;;;8.27;6.40;;;;;;;19.53;76.34;99193.78;4121833;28;20684;-87
2023/10/06 09:43:44;;;;;;;9.20;5.97;;;;;;;19.59;76.42;99196.75;4126602;28;20641;-87
2023/10/06 09:45:51;;;;;;;10.70;6.50;;;;;;;19.64;75.93;99197.19;4124861;28;20975;-87
2023/10/06 09:47:56;;;;;;;8.73;5.83;;;;;;;19.67;75.56;99196.91;4126722;28;20633;-87
2023/10/06 09:49:59;;;;;;;11.83;7.10;;;;;;;19.67;74.29;99196.09;4109920;28;20746;-87
2023/10/06 09:52:03;;;;;;;10.03;6.00;;;;;;;19.67;73.75;99191.63;4125844;28;20655;-87